createdAt,value
2023-03-03T00:00:26.924Z,98951.75
2023-03-03T00:01:29.124Z,98958.59
2023-03-03T00:02:31.108Z,98955.22
2023-03-03T00:03:33.932Z,98950.13
2023-03-03T00:04:36.069Z,98948.50
2023-03-03T00:05:38.332Z,98952.00
2023-03-03T00:06:40.300Z,98945.19
2023-03-03T00:07:46.287Z,98952.16
2023-03-03T00:08:48.453Z,98951.31
2023-03-03T00:09:50.879Z,98949.72
2023-03-03T00:10:53.027Z,98944.63
2023-03-03T00:11:57.944Z,98954.13
2023-03-03T00:13:00.609Z,98949.91
2023-03-03T00:14:02.657Z,98944.81
2023-03-03T00:15:15.805Z,98951.78
2023-03-03T00:16:26.729Z,98948.41
2023-03-03T00:17:32.092Z,98949.38
2023-03-03T00:18:41.054Z,98947.72
2023-03-03T00:19:47.424Z,98940.91
2023-03-03T00:21:03.207Z,98940.97
2023-03-03T00:22:16.493Z,98937.59
2023-03-03T00:23:24.448Z,98944.44
2023-03-03T00:24:38.586Z,98943.59
2023-03-03T00:25:45.103Z,98940.19
2023-03-03T00:26:52.382Z,98935.94
2023-03-03T00:27:54.668Z,98933.38
2023-03-03T00:28:57.308Z,98932.50
2023-03-03T00:30:01.091Z,98925.63
2023-03-03T00:31:17.760Z,98928.22
2023-03-03T00:32:26.986Z,98932.41
2023-03-03T00:33:34.974Z,98935.78
2023-03-03T00:34:37.400Z,98934.03
2023-03-03T00:35:39.789Z,98934.88
2023-03-03T00:36:42.363Z,98934.00
2023-03-03T00:37:44.348Z,98934.00
2023-03-03T00:38:47.558Z,98934.75
2023-03-03T00:39:49.756Z,98937.31
2023-03-03T00:40:51.744Z,98937.31
2023-03-03T00:41:54.079Z,98927.84
2023-03-03T00:42:59.678Z,98934.63
2023-03-03T00:44:17.886Z,98933.78
2023-03-03T00:45:31.710Z,98938.84
2023-03-03T00:46:37.363Z,98940.53
2023-03-03T00:47:43.641Z,98935.38
2023-03-03T00:48:47.797Z,98933.56
2023-03-03T00:49:49.838Z,98936.13
2023-03-03T00:50:53.653Z,98928.41
2023-03-03T00:51:55.656Z,98930.13
2023-03-03T00:53:20.479Z,98930.13
2023-03-03T00:54:22.685Z,98930.06
2023-03-03T00:55:24.659Z,98933.50
2023-03-03T00:56:27.463Z,98933.44
2023-03-03T00:57:29.548Z,98935.16
2023-03-03T00:58:31.583Z,98935.97
2023-03-03T00:59:33.711Z,98931.66
2023-03-03T01:00:37.433Z,98930.81
2023-03-03T01:01:39.531Z,98929.94
2023-03-03T01:02:41.611Z,98930.75
2023-03-03T01:03:43.799Z,98933.31
2023-03-03T01:04:50.962Z,98925.66
2023-03-03T01:05:54.038Z,98925.66
2023-03-03T01:06:56.179Z,98923.03
2023-03-03T01:07:58.280Z,98921.31
2023-03-03T01:09:00.210Z,98924.75
2023-03-03T01:10:02.402Z,98921.31
2023-03-03T01:11:13.216Z,98928.19
2023-03-03T01:12:16.017Z,98927.31
2023-03-03T01:13:20.022Z,98917.91
2023-03-03T01:14:22.475Z,98918.78
2023-03-03T01:15:24.983Z,98921.38
2023-03-03T01:16:27.067Z,98922.25
2023-03-03T01:17:29.405Z,98919.72
2023-03-03T01:18:31.654Z,98926.63
2023-03-03T01:19:34.077Z,98924.13
2023-03-03T01:20:36.259Z,98926.69
2023-03-03T01:21:38.952Z,98923.34
2023-03-03T01:22:41.391Z,98926.81
2023-03-03T01:23:43.463Z,98932.00
2023-03-03T01:24:45.481Z,98925.19
2023-03-03T01:25:47.565Z,98924.41
2023-03-03T01:26:49.710Z,98921.88
2023-03-03T01:27:51.840Z,98921.06
2023-03-03T01:28:53.917Z,98918.56
2023-03-03T01:29:56.821Z,98926.34
2023-03-03T01:31:06.628Z,98918.72
2023-03-03T01:32:08.609Z,98918.78
2023-03-03T01:33:10.732Z,98919.69
2023-03-03T01:34:12.685Z,98917.19
2023-03-03T01:35:15.037Z,98920.66
2023-03-03T01:36:23.119Z,98919.03
2023-03-03T01:37:25.150Z,98922.50
2023-03-03T01:38:27.897Z,98920.81
2023-03-03T01:39:29.969Z,98918.28
2023-03-03T01:40:32.610Z,98922.63
2023-03-03T01:41:34.803Z,98919.19
2023-03-03T01:42:36.714Z,98918.38
2023-03-03T01:43:45.782Z,98916.69
2023-03-03T01:44:48.277Z,98919.28
2023-03-03T01:45:50.302Z,98910.72
2023-03-03T01:47:13.068Z,98913.31
2023-03-03T01:48:31.953Z,98920.25
2023-03-03T01:49:50.438Z,98911.66
2023-03-03T01:50:57.629Z,98915.13
2023-03-03T01:52:03.156Z,98911.72
2023-03-03T01:53:11.633Z,98910.00
2023-03-03T01:54:21.026Z,98916.00
2023-03-03T01:55:29.381Z,98915.16
2023-03-03T01:56:31.282Z,98914.28
2023-03-03T01:57:41.765Z,98914.25
2023-03-03T01:58:48.277Z,98910.81
2023-03-03T01:59:52.569Z,98910.75
2023-03-03T02:01:03.709Z,98900.47
2023-03-03T02:02:05.890Z,98901.31
2023-03-03T02:03:08.035Z,98908.19
2023-03-03T02:04:10.319Z,98905.56
2023-03-03T02:05:13.914Z,98900.38
2023-03-03T02:06:19.623Z,98910.66
2023-03-03T02:07:23.292Z,98907.19
2023-03-03T02:08:31.107Z,98907.16
2023-03-03T02:09:51.679Z,98905.41
2023-03-03T02:10:55.128Z,98901.97
2023-03-03T02:12:01.633Z,98911.38
2023-03-03T02:13:03.878Z,98907.94
2023-03-03T02:14:05.884Z,98911.31
2023-03-03T02:15:37.629Z,98905.31
2023-03-03T02:16:40.853Z,98901.88
2023-03-03T02:17:43.034Z,98903.53
2023-03-03T02:18:45.556Z,98903.50
2023-03-03T02:20:34.770Z,98902.59
2023-03-03T02:21:36.708Z,98911.06
2023-03-03T02:22:54.103Z,98899.00
2023-03-03T02:24:14.698Z,98901.47
2023-03-03T02:25:27.689Z,98897.13
2023-03-03T02:26:32.846Z,98908.22
2023-03-03T02:27:36.122Z,98910.78
2023-03-03T02:28:39.873Z,98906.47
2023-03-03T02:29:41.856Z,98898.75
2023-03-03T02:30:44.639Z,98897.94
2023-03-03T02:31:46.722Z,98897.94
2023-03-03T02:32:48.712Z,98895.34
2023-03-03T02:33:52.582Z,98894.47
2023-03-03T02:34:54.572Z,98897.03
2023-03-03T02:35:56.941Z,98896.16
2023-03-03T02:36:59.044Z,98897.94
2023-03-03T02:38:21.475Z,98904.78
2023-03-03T02:39:27.325Z,98892.75
2023-03-03T02:40:34.829Z,98900.44
2023-03-03T02:41:59.748Z,98889.19
2023-03-03T02:43:05.594Z,98900.34
2023-03-03T02:44:18.738Z,98890.81
2023-03-03T02:45:20.752Z,98895.09
2023-03-03T02:46:22.831Z,98894.16
2023-03-03T02:47:25.356Z,98887.22
2023-03-03T02:48:27.342Z,98890.63
2023-03-03T02:49:35.160Z,98889.78
2023-03-03T02:50:37.622Z,98886.34
2023-03-03T02:51:40.730Z,98884.69
2023-03-03T02:52:42.800Z,98886.41
2023-03-03T02:53:44.874Z,98886.47
2023-03-03T02:54:46.924Z,98889.03
2023-03-03T02:55:48.959Z,98888.19
2023-03-03T02:56:51.005Z,98887.34
2023-03-03T02:57:53.068Z,98885.66
2023-03-03T02:58:55.885Z,98882.28
2023-03-03T02:59:57.971Z,98885.72
2023-03-03T03:01:00.088Z,98870.28
2023-03-03T03:02:02.141Z,98878.00
2023-03-03T03:03:04.530Z,98873.72
2023-03-03T03:04:10.479Z,98880.63
2023-03-03T03:05:12.575Z,98878.91
2023-03-03T03:06:14.672Z,98875.47
2023-03-03T03:07:16.665Z,98880.63
2023-03-03T03:08:18.722Z,98872.91
2023-03-03T03:09:22.641Z,98878.09
2023-03-03T03:10:24.739Z,98874.69
2023-03-03T03:11:27.224Z,98872.09
2023-03-03T03:12:29.194Z,98867.81
2023-03-03T03:13:32.221Z,98871.31
2023-03-03T03:14:34.306Z,98867.91
2023-03-03T03:15:36.742Z,98876.50
2023-03-03T03:16:39.134Z,98873.91
2023-03-03T03:17:41.204Z,98872.19
2023-03-03T03:18:43.379Z,98870.41
2023-03-03T03:19:45.438Z,98864.34
2023-03-03T03:20:48.559Z,98872.84
2023-03-03T03:21:50.547Z,98875.44
2023-03-03T03:22:52.546Z,98871.91
2023-03-03T03:23:54.699Z,98871.91
2023-03-03T03:24:57.013Z,98864.13
2023-03-03T03:25:58.973Z,98874.34
2023-03-03T03:27:00.990Z,98864.94
2023-03-03T03:28:02.945Z,98865.78
2023-03-03T03:29:05.086Z,98873.50
2023-03-03T03:30:07.761Z,98863.22
2023-03-03T03:31:10.149Z,98869.25
2023-03-03T03:32:13.002Z,98864.97
2023-03-03T03:33:15.040Z,98859.84
2023-03-03T03:34:17.138Z,98864.97
2023-03-03T03:35:19.344Z,98868.47
2023-03-03T03:36:21.394Z,98866.69
2023-03-03T03:37:23.470Z,98859.88
2023-03-03T03:38:27.199Z,98872.75
2023-03-03T03:39:29.342Z,98874.47
2023-03-03T03:40:31.257Z,98867.66
2023-03-03T03:41:33.232Z,98867.66
2023-03-03T03:42:35.189Z,98874.56
2023-03-03T03:43:37.348Z,98867.72
2023-03-03T03:44:39.461Z,98863.47
2023-03-03T03:45:45.590Z,98859.19
2023-03-03T03:46:47.527Z,98863.47
2023-03-03T03:47:49.714Z,98868.69
2023-03-03T03:48:51.642Z,98866.09
2023-03-03T03:49:53.596Z,98855.81
2023-03-03T03:50:55.735Z,98867.06
2023-03-03T03:51:57.755Z,98862.78
2023-03-03T03:52:59.741Z,98867.16
2023-03-03T03:54:01.873Z,98859.50
2023-03-03T03:55:04.507Z,98861.25
2023-03-03T03:56:06.941Z,98867.31
2023-03-03T03:57:09.029Z,98862.16
2023-03-03T03:58:18.644Z,98858.78
2023-03-03T03:59:21.395Z,98867.41
2023-03-03T04:00:23.755Z,98867.44
2023-03-03T04:01:26.642Z,98864.03
2023-03-03T04:02:28.621Z,98864.09
2023-03-03T04:03:30.766Z,98858.13
2023-03-03T04:04:33.106Z,98853.84
2023-03-03T04:05:35.364Z,98859.03
2023-03-03T04:06:37.398Z,98859.94
2023-03-03T04:07:39.609Z,98860.84
2023-03-03T04:08:41.625Z,98860.88
2023-03-03T04:09:43.681Z,98856.59
2023-03-03T04:10:45.681Z,98855.84
2023-03-03T04:11:47.768Z,98859.28
2023-03-03T04:12:49.743Z,98867.03
2023-03-03T04:13:51.731Z,98859.38
2023-03-03T04:14:53.693Z,98856.00
2023-03-03T04:15:55.928Z,98858.63
2023-03-03T04:16:57.922Z,98862.94
2023-03-03T04:18:00.148Z,98858.69
2023-03-03T04:19:02.174Z,98864.72
2023-03-03T04:20:05.284Z,98861.34
2023-03-03T04:21:07.465Z,98858.78
2023-03-03T04:22:09.490Z,98860.50
2023-03-03T04:23:11.609Z,98857.09
2023-03-03T04:24:13.674Z,98857.97
2023-03-03T04:25:17.659Z,98858.88
2023-03-03T04:26:19.787Z,98861.53
2023-03-03T04:27:21.752Z,98858.97
2023-03-03T04:28:25.488Z,98854.72
2023-03-03T04:29:27.558Z,98856.50
2023-03-03T04:30:29.488Z,98854.81
2023-03-03T04:31:32.145Z,98860.00
2023-03-03T04:32:34.210Z,98854.84
2023-03-03T04:33:36.510Z,98856.66
2023-03-03T04:34:38.730Z,98854.06
2023-03-03T04:35:40.867Z,98852.41
2023-03-03T04:36:42.825Z,98851.63
2023-03-03T04:37:44.950Z,98853.38
2023-03-03T04:38:47.330Z,98853.41
2023-03-03T04:39:49.387Z,98856.84
2023-03-03T04:40:51.423Z,98854.31
2023-03-03T04:41:53.511Z,98858.66
2023-03-03T04:42:55.568Z,98856.97
2023-03-03T04:43:57.755Z,98855.28
2023-03-03T04:44:59.809Z,98856.13
2023-03-03T04:46:01.999Z,98857.03
2023-03-03T04:47:04.412Z,98857.91
2023-03-03T04:48:06.931Z,98854.47
2023-03-03T04:49:11.364Z,98854.47
2023-03-03T04:50:14.522Z,98848.50
2023-03-03T04:51:16.998Z,98849.44
2023-03-03T04:52:19.112Z,98846.88
2023-03-03T04:53:21.208Z,98852.09
2023-03-03T04:54:23.317Z,98845.25
2023-03-03T04:55:25.321Z,98844.50
2023-03-03T04:56:28.835Z,98850.59
2023-03-03T04:57:31.293Z,98843.84
2023-03-03T04:58:33.389Z,98848.28
2023-03-03T04:59:36.393Z,98839.78
2023-03-03T05:00:38.796Z,98844.22
2023-03-03T05:01:41.162Z,98846.06
2023-03-03T05:02:43.400Z,98840.97
2023-03-03T05:03:45.578Z,98848.81
2023-03-03T05:04:47.800Z,98851.41
2023-03-03T05:05:49.739Z,98845.41
2023-03-03T05:06:51.931Z,98844.53
2023-03-03T05:07:53.848Z,98837.66
2023-03-03T05:08:55.950Z,98845.41
2023-03-03T05:09:57.849Z,98844.56
2023-03-03T05:11:02.722Z,98836.81
2023-03-03T05:12:04.962Z,98842.00
2023-03-03T05:13:08.557Z,98834.28
2023-03-03T05:14:10.621Z,98841.19
2023-03-03T05:15:13.091Z,98836.94
2023-03-03T05:16:15.078Z,98838.69
2023-03-03T05:17:17.111Z,98843.03
2023-03-03T05:18:20.243Z,98833.56
2023-03-03T05:19:22.232Z,98834.41
2023-03-03T05:20:25.470Z,98837.03
2023-03-03T05:21:27.508Z,98837.94
2023-03-03T05:22:29.469Z,98837.94
2023-03-03T05:23:31.670Z,98832.75
2023-03-03T05:24:33.776Z,98833.59
2023-03-03T05:25:35.818Z,98832.72
2023-03-03T05:26:38.529Z,98835.28
2023-03-03T05:27:40.819Z,98833.56
2023-03-03T05:28:43.099Z,98825.78
2023-03-03T05:29:45.399Z,98828.38
2023-03-03T05:30:47.566Z,98837.81
2023-03-03T05:31:49.839Z,98827.44
2023-03-03T05:32:51.954Z,98836.06
2023-03-03T05:33:55.084Z,98842.97
2023-03-03T05:34:57.119Z,98826.59
2023-03-03T05:35:59.338Z,98828.28
2023-03-03T05:37:01.318Z,98832.63
2023-03-03T05:38:05.439Z,98824.03
2023-03-03T05:39:07.786Z,98828.31
2023-03-03T05:40:10.529Z,98831.75
2023-03-03T05:41:12.521Z,98841.22
2023-03-03T05:42:14.964Z,98837.78
2023-03-03T05:43:17.174Z,98829.16
2023-03-03T05:44:20.660Z,98828.28
2023-03-03T05:45:24.614Z,98834.34
2023-03-03T05:46:26.641Z,98828.34
2023-03-03T05:47:29.486Z,98833.53
2023-03-03T05:48:31.485Z,98826.72
2023-03-03T05:49:33.974Z,98830.22
2023-03-03T05:50:37.299Z,98826.81
2023-03-03T05:51:39.200Z,98828.53
2023-03-03T05:52:41.321Z,98821.66
2023-03-03T05:53:43.274Z,98825.97
2023-03-03T05:54:45.286Z,98829.44
2023-03-03T05:55:47.319Z,98836.31
2023-03-03T05:56:49.321Z,98821.66
2023-03-03T05:57:51.506Z,98824.25
2023-03-03T05:58:53.559Z,98833.75
2023-03-03T05:59:55.512Z,98827.69
2023-03-03T06:00:57.906Z,98830.25
2023-03-03T06:01:59.861Z,98831.13
2023-03-03T06:03:02.109Z,98827.69
2023-03-03T06:04:04.136Z,98825.97
2023-03-03T06:05:06.791Z,98825.09
2023-03-03T06:06:09.410Z,98825.97
2023-03-03T06:07:11.361Z,98822.50
2023-03-03T06:08:13.415Z,98829.41
2023-03-03T06:09:15.800Z,98822.50
2023-03-03T06:10:17.998Z,98818.22
2023-03-03T06:11:20.071Z,98823.38
2023-03-03T06:12:22.529Z,98824.25
2023-03-03T06:13:24.719Z,98818.22
2023-03-03T06:14:27.286Z,98813.88
2023-03-03T06:15:29.853Z,98818.19
2023-03-03T06:16:32.009Z,98821.66
2023-03-03T06:17:34.045Z,98813.88
2023-03-03T06:18:36.158Z,98819.91
2023-03-03T06:19:41.673Z,98817.31
2023-03-03T06:20:44.041Z,98814.72
2023-03-03T06:21:46.172Z,98824.25
2023-03-03T06:22:48.070Z,98813.91
2023-03-03T06:23:50.004Z,98815.63
2023-03-03T06:24:52.904Z,98819.94
2023-03-03T06:25:54.901Z,98819.09
2023-03-03T06:26:57.924Z,98818.25
2023-03-03T06:27:59.910Z,98815.66
2023-03-03T06:29:01.883Z,98815.63
2023-03-03T06:30:04.846Z,98808.75
2023-03-03T06:31:07.104Z,98808.72
2023-03-03T06:32:09.525Z,98808.72
2023-03-03T06:33:11.947Z,98807.00
2023-03-03T06:34:13.983Z,98814.78
2023-03-03T06:35:16.007Z,98807.88
2023-03-03T06:36:19.091Z,98808.69
2023-03-03T06:37:21.235Z,98806.09
2023-03-03T06:38:23.229Z,98805.22
2023-03-03T06:39:25.175Z,98812.06
2023-03-03T06:40:27.216Z,98804.28
2023-03-03T06:41:29.208Z,98802.50
2023-03-03T06:42:31.265Z,98805.97
2023-03-03T06:43:37.188Z,98801.63
2023-03-03T06:44:39.229Z,98800.75
2023-03-03T06:45:41.537Z,98801.69
2023-03-03T06:46:43.716Z,98799.97
2023-03-03T06:47:45.675Z,98797.41
2023-03-03T06:48:47.950Z,98796.53
2023-03-03T06:49:49.826Z,98800.00
2023-03-03T06:50:51.862Z,98793.09
2023-03-03T06:51:54.056Z,98796.56
2023-03-03T06:53:17.186Z,98797.41
2023-03-03T06:54:30.347Z,98791.38
2023-03-03T06:55:32.934Z,98787.91
2023-03-03T06:56:37.699Z,98787.06
2023-03-03T06:57:39.998Z,98787.97
2023-03-03T06:58:41.954Z,98789.66
2023-03-03T06:59:44.183Z,98793.13
2023-03-03T07:00:50.760Z,98788.78
2023-03-03T07:01:53.891Z,98793.16
2023-03-03T07:03:02.876Z,98799.19
2023-03-03T07:04:16.185Z,98789.66
2023-03-03T07:05:18.930Z,98790.53
2023-03-03T07:06:24.754Z,98789.66
2023-03-03T07:07:26.910Z,98798.28
2023-03-03T07:08:32.413Z,98793.09
2023-03-03T07:09:34.404Z,98791.34
2023-03-03T07:10:36.456Z,98793.09
2023-03-03T07:11:41.154Z,98789.63
2023-03-03T07:12:43.313Z,98785.28
2023-03-03T07:13:50.056Z,98786.13
2023-03-03T07:15:16.427Z,98792.19
2023-03-03T07:16:20.284Z,98787.84
2023-03-03T07:17:25.080Z,98787.84
2023-03-03T07:18:30.097Z,98784.34
2023-03-03T07:19:35.655Z,98780.00
2023-03-03T07:20:40.108Z,98785.19
2023-03-03T07:21:42.133Z,98788.63
2023-03-03T07:22:44.236Z,98777.38
2023-03-03T07:23:50.859Z,98790.38
2023-03-03T07:24:55.288Z,98781.72
2023-03-03T07:25:57.308Z,98776.56
2023-03-03T07:27:18.779Z,98779.09
2023-03-03T07:28:24.982Z,98780.81
2023-03-03T07:29:30.929Z,98779.06
2023-03-03T07:30:33.524Z,98780.75
2023-03-03T07:31:39.518Z,98772.06
2023-03-03T07:32:46.815Z,98777.28
2023-03-03T07:33:48.943Z,98774.66
2023-03-03T07:34:54.333Z,98781.59
2023-03-03T07:35:59.301Z,98772.09
2023-03-03T07:37:16.296Z,98772.97
2023-03-03T07:38:26.410Z,98779.84
2023-03-03T07:39:39.004Z,98778.06
2023-03-03T07:40:49.889Z,98775.47
2023-03-03T07:41:52.322Z,98766.78
2023-03-03T07:42:54.317Z,98777.16
2023-03-03T07:44:00.431Z,98770.22
2023-03-03T07:45:02.580Z,98765.88
2023-03-03T07:46:30.940Z,98762.41
2023-03-03T07:47:37.157Z,98768.44
2023-03-03T07:48:42.026Z,98765.81
2023-03-03T07:49:44.240Z,98763.22
2023-03-03T07:50:46.333Z,98759.72
2023-03-03T07:51:48.536Z,98757.94
2023-03-03T07:52:58.946Z,98756.19
2023-03-03T07:54:21.927Z,98755.25
2023-03-03T07:55:42.332Z,98753.47
2023-03-03T07:56:44.955Z,98751.72
2023-03-03T07:57:47.296Z,98756.91
2023-03-03T07:58:49.342Z,98755.16
2023-03-03T08:00:16.850Z,98763.78
2023-03-03T08:01:43.791Z,98751.63
2023-03-03T08:02:52.866Z,98763.75
2023-03-03T08:03:56.274Z,98762.81
2023-03-03T08:04:58.840Z,98749.84
2023-03-03T08:06:24.363Z,98750.66
2023-03-03T08:07:26.892Z,98755.84
2023-03-03T08:08:37.311Z,98752.31
2023-03-03T08:09:42.807Z,98754.81
2023-03-03T08:10:48.460Z,98747.03
2023-03-03T08:12:42.500Z,98752.16
2023-03-03T08:13:45.980Z,98749.59
2023-03-03T08:14:48.169Z,98753.97
2023-03-03T08:15:53.109Z,98748.75
2023-03-03T08:16:56.852Z,98757.41
2023-03-03T08:18:01.997Z,98748.81
2023-03-03T08:19:05.841Z,98754.88
2023-03-03T08:20:45.200Z,98754.00
2023-03-03T08:21:47.904Z,98750.53
2023-03-03T08:22:49.859Z,98751.41
2023-03-03T08:23:53.781Z,98749.63
2023-03-03T08:24:55.824Z,98744.41
2023-03-03T08:25:57.771Z,98747.00
2023-03-03T08:26:59.901Z,98753.06
2023-03-03T08:28:01.858Z,98745.31
2023-03-03T08:29:03.781Z,98750.53
2023-03-03T08:30:06.131Z,98743.59
2023-03-03T08:31:18.366Z,98746.22
2023-03-03T08:32:27.281Z,98739.22
2023-03-03T08:33:29.405Z,98747.91
2023-03-03T08:34:31.434Z,98738.44
2023-03-03T08:35:33.597Z,98752.31
2023-03-03T08:36:35.629Z,98754.09
2023-03-03T08:37:37.862Z,98743.66
2023-03-03T08:38:41.105Z,98748.84
2023-03-03T08:39:43.163Z,98743.63
2023-03-03T08:40:45.244Z,98748.81
2023-03-03T08:41:48.168Z,98736.63
2023-03-03T08:42:50.296Z,98742.63
2023-03-03T08:43:52.316Z,98743.47
2023-03-03T08:44:54.254Z,98741.69
2023-03-03T08:46:01.598Z,98736.38
2023-03-03T08:47:05.201Z,98735.38
2023-03-03T08:48:07.912Z,98738.72
2023-03-03T08:49:11.264Z,98735.19
2023-03-03T08:50:14.679Z,98735.09
2023-03-03T08:51:16.662Z,98734.19
2023-03-03T08:52:18.734Z,98733.22
2023-03-03T08:53:21.937Z,98728.06
2023-03-03T08:54:23.978Z,98722.00
2023-03-03T08:55:26.138Z,98728.06
2023-03-03T08:56:28.219Z,98728.91
2023-03-03T08:57:30.434Z,98729.75
2023-03-03T08:58:35.588Z,98729.84
2023-03-03T08:59:39.266Z,98733.25
2023-03-03T09:00:41.985Z,98732.38
2023-03-03T09:01:44.937Z,98728.94
2023-03-03T09:02:47.352Z,98723.78
2023-03-03T09:03:49.500Z,98730.66
2023-03-03T09:04:51.675Z,98725.44
2023-03-03T09:05:54.248Z,98727.16
2023-03-03T09:06:56.189Z,98726.28
2023-03-03T09:07:58.308Z,98723.66
2023-03-03T09:09:00.364Z,98729.69
2023-03-03T09:10:02.543Z,98727.03
2023-03-03T09:11:12.686Z,98723.53
2023-03-03T09:12:22.849Z,98726.06
2023-03-03T09:13:24.900Z,98721.69
2023-03-03T09:14:29.792Z,98721.75
2023-03-03T09:15:38.204Z,98724.25
2023-03-03T09:16:46.627Z,98719.00
2023-03-03T09:17:49.528Z,98724.16
2023-03-03T09:18:51.582Z,98727.56
2023-03-03T09:20:00.114Z,98719.75
2023-03-03T09:21:02.811Z,98718.09
2023-03-03T09:22:21.446Z,98713.88
2023-03-03T09:23:31.745Z,98712.22
2023-03-03T09:24:37.248Z,98713.16
2023-03-03T09:25:41.967Z,98713.25
2023-03-03T09:26:47.918Z,98715.03
2023-03-03T09:27:53.040Z,98712.44
2023-03-03T09:28:59.045Z,98709.84
2023-03-03T09:30:12.904Z,98710.72
2023-03-03T09:31:26.683Z,98715.16
2023-03-03T09:32:43.370Z,98714.25
2023-03-03T09:33:49.975Z,98713.41
2023-03-03T09:34:52.377Z,98714.25
2023-03-03T09:36:35.760Z,98705.53
2023-03-03T09:37:40.715Z,98715.00
2023-03-03T09:38:45.849Z,98707.09
2023-03-03T09:39:51.436Z,98707.09
2023-03-03T09:41:05.643Z,98709.66
2023-03-03T09:42:44.673Z,98708.69
2023-03-03T09:43:56.049Z,98700.78
2023-03-03T09:45:42.656Z,98702.31
2023-03-03T09:47:03.104Z,98710.06
2023-03-03T09:48:54.794Z,98706.56
2023-03-03T09:50:30.197Z,98698.66
2023-03-03T09:51:51.967Z,98707.31
2023-03-03T09:53:19.813Z,98702.19
2023-03-03T09:54:29.273Z,98708.31
2023-03-03T09:55:49.390Z,98697.84
2023-03-03T09:56:53.965Z,98696.00
2023-03-03T09:58:10.070Z,98699.41
2023-03-03T09:59:15.346Z,98704.41
2023-03-03T10:00:56.341Z,98698.34
2023-03-03T10:02:06.372Z,98696.44
2023-03-03T10:03:49.188Z,98694.63
2023-03-03T10:05:19.677Z,98698.03
2023-03-03T10:06:39.814Z,98701.31
2023-03-03T10:08:12.564Z,98696.91
2023-03-03T10:09:44.012Z,98698.47
2023-03-03T10:11:02.022Z,98692.31
2023-03-03T10:12:35.840Z,98692.47
2023-03-03T10:13:53.970Z,98685.63
2023-03-03T10:14:58.806Z,98695.31
2023-03-03T10:16:33.254Z,98696.16
2023-03-03T10:17:44.197Z,98689.31
2023-03-03T10:18:53.021Z,98689.41
2023-03-03T10:19:57.874Z,98693.81
2023-03-03T10:21:25.302Z,98697.34
2023-03-03T10:22:56.308Z,98686.91
2023-03-03T10:24:36.543Z,98693.88
2023-03-03T10:25:49.468Z,98692.16
2023-03-03T10:27:14.230Z,98687.91
2023-03-03T10:28:34.725Z,98691.38
2023-03-03T10:30:01.154Z,98704.56
2023-03-03T10:31:20.426Z,98694.22
2023-03-03T10:32:26.225Z,98695.22
2023-03-03T10:34:05.121Z,98698.66
2023-03-03T10:35:23.669Z,98696.03
2023-03-03T10:36:39.708Z,98690.06
2023-03-03T10:37:52.646Z,98698.75
2023-03-03T10:39:25.121Z,98695.38
2023-03-03T10:41:11.448Z,98704.16
2023-03-03T10:42:38.060Z,98704.28
2023-03-03T10:43:58.369Z,98697.41
2023-03-03T10:45:03.487Z,98700.97
2023-03-03T10:46:34.438Z,98701.91
2023-03-03T10:47:51.834Z,98704.53
2023-03-03T10:49:17.237Z,98702.97
2023-03-03T10:50:53.901Z,98707.22
2023-03-03T10:52:15.726Z,98704.00
2023-03-03T10:54:11.535Z,98706.69
2023-03-03T10:55:28.566Z,98701.44
2023-03-03T10:57:05.740Z,98698.00
2023-03-03T10:58:22.538Z,98699.75
2023-03-03T10:59:24.314Z,98699.69
2023-03-03T11:00:51.797Z,98711.06
2023-03-03T11:01:58.762Z,98703.31
2023-03-03T11:03:22.768Z,98699.91
2023-03-03T11:04:39.900Z,98700.72
2023-03-03T11:05:53.971Z,98702.53
2023-03-03T11:07:31.182Z,98695.59
2023-03-03T11:08:42.062Z,98702.47
2023-03-03T11:10:08.274Z,98699.84
2023-03-03T11:11:19.529Z,98699.78
2023-03-03T11:12:34.091Z,98703.16
2023-03-03T11:14:07.070Z,98697.06
2023-03-03T11:15:40.462Z,98702.22
2023-03-03T11:16:51.487Z,98703.13
2023-03-03T11:18:02.574Z,98702.31
2023-03-03T11:19:22.775Z,98714.53
2023-03-03T11:20:46.607Z,98711.06
2023-03-03T11:22:14.610Z,98709.34
2023-03-03T11:23:39.914Z,98704.09
2023-03-03T11:24:58.530Z,98705.03
2023-03-03T11:26:04.000Z,98704.16
2023-03-03T11:27:21.019Z,98718.88
2023-03-03T11:28:45.070Z,98712.84
2023-03-03T11:30:19.138Z,98713.72
2023-03-03T11:32:12.069Z,98713.69
2023-03-03T11:33:45.187Z,98713.69
2023-03-03T11:34:50.051Z,98715.50
2023-03-03T11:36:13.466Z,98712.94
2023-03-03T11:37:48.120Z,98709.44
2023-03-03T11:39:08.162Z,98717.22
2023-03-03T11:40:27.838Z,98712.84
2023-03-03T11:41:35.224Z,98711.13
2023-03-03T11:43:26.311Z,98719.78
2023-03-03T11:44:42.302Z,98712.84
2023-03-03T11:45:52.091Z,98711.09
2023-03-03T11:47:01.794Z,98711.13
2023-03-03T11:48:18.680Z,98712.91
2023-03-03T11:50:02.422Z,98713.75
2023-03-03T11:51:17.258Z,98712.88
2023-03-03T11:52:48.316Z,98707.63
2023-03-03T11:54:21.074Z,98715.38
2023-03-03T11:55:39.523Z,98710.16
2023-03-03T11:56:44.416Z,98715.31
2023-03-03T11:58:01.222Z,98710.94
2023-03-03T11:59:12.042Z,98709.97
2023-03-03T12:00:21.002Z,98719.50
2023-03-03T12:01:31.250Z,98715.19
2023-03-03T12:02:44.336Z,98706.56
2023-03-03T12:03:58.615Z,98708.34
2023-03-03T12:05:10.662Z,98709.25
2023-03-03T12:06:30.590Z,98711.88
2023-03-03T12:07:35.780Z,98711.00
2023-03-03T12:09:06.333Z,98724.91
2023-03-03T12:10:32.787Z,98717.09
2023-03-03T12:11:43.102Z,98722.34
2023-03-03T12:12:52.227Z,98716.28
2023-03-03T12:13:57.751Z,98717.19
2023-03-03T12:15:15.866Z,98717.19
2023-03-03T12:16:39.499Z,98717.06
2023-03-03T12:17:41.714Z,98713.56
2023-03-03T12:19:04.453Z,98715.34
2023-03-03T12:20:29.327Z,98710.94
2023-03-03T12:21:49.037Z,98717.03
2023-03-03T12:23:06.747Z,98713.53
2023-03-03T12:24:24.769Z,98718.78
2023-03-03T12:25:36.295Z,98710.13
2023-03-03T12:27:07.929Z,98714.41
2023-03-03T12:28:19.003Z,98713.56
2023-03-03T12:29:34.428Z,98717.03
2023-03-03T12:31:35.510Z,98716.13
2023-03-03T12:33:01.072Z,98720.47
2023-03-03T12:34:17.406Z,98715.28
2023-03-03T12:35:50.666Z,98719.56
2023-03-03T12:37:05.622Z,98712.63
2023-03-03T12:38:38.692Z,98716.09
2023-03-03T12:39:59.283Z,98719.50
2023-03-03T12:41:27.844Z,98708.25
2023-03-03T12:42:46.744Z,98714.31
2023-03-03T12:43:56.336Z,98716.91
2023-03-03T12:45:27.057Z,98719.50
2023-03-03T12:47:04.423Z,98712.59
2023-03-03T12:48:26.857Z,98717.84
2023-03-03T12:50:12.551Z,98716.94
2023-03-03T12:51:37.548Z,98714.25
2023-03-03T12:53:20.884Z,98716.88
2023-03-03T12:54:38.094Z,98718.63
2023-03-03T12:55:49.342Z,98716.88
2023-03-03T12:57:17.158Z,98713.44
2023-03-03T12:58:57.161Z,98715.19
2023-03-03T13:00:11.144Z,98716.94
2023-03-03T13:01:13.165Z,98716.94
2023-03-03T13:02:30.323Z,98719.59
2023-03-03T13:03:57.837Z,98724.75
2023-03-03T13:05:16.361Z,98716.09
2023-03-03T13:06:32.759Z,98715.28
2023-03-03T13:07:40.978Z,98714.38
2023-03-03T13:09:16.942Z,98717.75
2023-03-03T13:10:23.830Z,98714.31
2023-03-03T13:11:46.314Z,98718.63
2023-03-03T13:13:01.019Z,98721.22
2023-03-03T13:14:33.470Z,98717.75
2023-03-03T13:15:55.723Z,98719.50
2023-03-03T13:17:13.538Z,98724.72
2023-03-03T13:18:52.403Z,98711.69
2023-03-03T13:20:03.979Z,98722.13
2023-03-03T13:21:13.521Z,98718.69
2023-03-03T13:22:37.826Z,98722.16
2023-03-03T13:24:01.346Z,98720.41
2023-03-03T13:25:25.027Z,98718.69
2023-03-03T13:26:40.739Z,98720.41